<?xml version="1.0" encoding="UTF-8" standalone="no" ?>
<gpx xmlns="http://www.topografix.com/GPX/1/1" xmlns:xsi="http://www.w3.org/2001/XMLSchema-instance" xsi:schemaLocation="http://www.topografix.com/GPX/1/1 http://www.topografix.com/GPX/1/1/gpx.xsd" version="1.1" creator="VisuGPX - https://www.visugpx.com">
  <metadata>
    <name>Rando Murat le Quaire - le Pessy - Les Planches - Lusclade - Pieds du Puy Gros et du Tenon - Plan d'eau du pré Cohadon - Murat le Quaire</name>
    <desc><![CDATA[Superbe randonnée en partant de Murat le Quaire en boucle de 11.51 Km]]></desc>
  </metadata>
  <trk>
    <name><![CDATA[Rando Murat le Quaire - le Pessy - Les Planches - Lusclade - Pieds du Puy Gros et du Tenon - Plan d'eau du pré Cohadon - Murat le Quaire_1]]></name>
    <trkseg>
      <trkpt lat="45.59694" lon="2.73293">
        <ele>1003.2</ele>
        <time>56108-01-09T23:32:01.000Z</time>
      </trkpt>
      <trkpt lat="45.59683" lon="2.73313">
        <ele>1005.7</ele>
        <time>56108-01-10T06:43:19.000Z</time>
      </trkpt>
      <trkpt lat="45.59666" lon="2.73303">
        <ele>1003.6</ele>
        <time>56108-01-10T13:23:19.000Z</time>
      </trkpt>
      <trkpt lat="45.5966" lon="2.73306">
        <ele>1003.6</ele>
        <time>56108-01-10T16:43:19.000Z</time>
      </trkpt>
      <trkpt lat="45.59647" lon="2.73333">
        <ele>1006.8</ele>
        <time>56108-01-10T22:16:39.000Z</time>
      </trkpt>
      <trkpt lat="45.59634" lon="2.73349">
        <ele>1005.4</ele>
        <time>56108-01-11T01:36:39.000Z</time>
      </trkpt>
      <trkpt lat="45.59629" lon="2.73372">
        <ele>1005.1</ele>
        <time>56108-01-11T06:03:19.000Z</time>
      </trkpt>
      <trkpt lat="45.59626" lon="2.73433">
        <ele>1004.6</ele>
        <time>56108-01-11T16:36:39.000Z</time>
      </trkpt>
      <trkpt lat="45.59628" lon="2.73436">
        <ele>1005.1</ele>
        <time>56108-01-12T03:43:19.000Z</time>
      </trkpt>
      <trkpt lat="45.59625" lon="2.73453">
        <ele>1004.4</ele>
        <time>56108-01-12T10:56:39.000Z</time>
      </trkpt>
      <trkpt lat="45.59626" lon="2.73469">
        <ele>1004.7</ele>
        <time>56108-01-13T01:23:19.000Z</time>
      </trkpt>
      <trkpt lat="45.59644" lon="2.73479">
        <ele>1007.6</ele>
        <time>56108-01-13T07:13:19.000Z</time>
      </trkpt>
      <trkpt lat="45.5967" lon="2.73472">
        <ele>1011.1</ele>
        <time>56108-01-13T15:33:19.000Z</time>
      </trkpt>
      <trkpt lat="45.59685" lon="2.7346">
        <ele>1012.2</ele>
        <time>56108-01-13T19:59:59.000Z</time>
      </trkpt>
      <trkpt lat="45.59701" lon="2.7344">
        <ele>1014.7</ele>
        <time>56108-01-14T03:46:39.000Z</time>
      </trkpt>
      <trkpt lat="45.59704" lon="2.7345">
        <ele>1014.7</ele>
        <time>56108-01-14T05:43:19.000Z</time>
      </trkpt>
      <trkpt lat="45.59702" lon="2.73459">
        <ele>1014</ele>
        <time>56108-01-14T07:23:19.000Z</time>
      </trkpt>
      <trkpt lat="45.59684" lon="2.73477">
        <ele>1011.4</ele>
        <time>56108-01-14T11:49:59.000Z</time>
      </trkpt>
      <trkpt lat="45.59695" lon="2.73496">
        <ele>1011.2</ele>
        <time>56108-01-14T17:23:19.000Z</time>
      </trkpt>
      <trkpt lat="45.59693" lon="2.73503">
        <ele>1010.2</ele>
        <time>56108-01-14T19:36:39.000Z</time>
      </trkpt>
      <trkpt lat="45.59686" lon="2.73503">
        <ele>1009.8</ele>
        <time>56108-01-15T01:09:59.000Z</time>
      </trkpt>
      <trkpt lat="45.59721" lon="2.73518">
        <ele>1011.5</ele>
        <time>56108-01-15T19:29:59.000Z</time>
      </trkpt>
      <trkpt lat="45.59731" lon="2.73571">
        <ele>1013.3</ele>
        <time>56108-01-16T04:06:39.000Z</time>
      </trkpt>
      <trkpt lat="45.59723" lon="2.73597">
        <ele>1008.4</ele>
        <time>56108-01-16T09:06:39.000Z</time>
      </trkpt>
      <trkpt lat="45.59715" lon="2.73653">
        <ele>1003</ele>
        <time>56108-01-16T19:23:19.000Z</time>
      </trkpt>
      <trkpt lat="45.59714" lon="2.73702">
        <ele>998.9</ele>
        <time>56108-01-17T05:23:19.000Z</time>
      </trkpt>
      <trkpt lat="45.59714" lon="2.73705">
        <ele>998.2</ele>
        <time>56108-01-17T07:03:19.000Z</time>
      </trkpt>
      <trkpt lat="45.59711" lon="2.73701">
        <ele>998.6</ele>
        <time>56108-01-17T12:03:19.000Z</time>
      </trkpt>
      <trkpt lat="45.59709" lon="2.73709">
        <ele>996.7</ele>
        <time>56108-01-17T20:56:39.000Z</time>
      </trkpt>
      <trkpt lat="45.59721" lon="2.7372">
        <ele>996.3</ele>
        <time>56108-01-18T17:13:19.000Z</time>
      </trkpt>
      <trkpt lat="45.59726" lon="2.73738">
        <ele>992.2</ele>
        <time>56108-01-18T21:39:59.000Z</time>
      </trkpt>
      <trkpt lat="45.59735" lon="2.73757">
        <ele>988.9</ele>
        <time>56108-01-19T03:46:39.000Z</time>
      </trkpt>
      <trkpt lat="45.5973" lon="2.73778">
        <ele>983.8</ele>
        <time>56108-01-19T07:39:59.000Z</time>
      </trkpt>
      <trkpt lat="45.59729" lon="2.73803">
        <ele>979.3</ele>
        <time>56108-01-19T12:39:59.000Z</time>
      </trkpt>
      <trkpt lat="45.59722" lon="2.73818">
        <ele>977</ele>
        <time>56108-01-19T16:33:19.000Z</time>
      </trkpt>
      <trkpt lat="45.59702" lon="2.73825">
        <ele>975.7</ele>
        <time>56108-01-19T20:26:39.000Z</time>
      </trkpt>
      <trkpt lat="45.59683" lon="2.73821">
        <ele>975.1</ele>
        <time>56108-01-20T04:46:39.000Z</time>
      </trkpt>
      <trkpt lat="45.59699" lon="2.73813">
        <ele>976.9</ele>
        <time>56108-01-20T10:19:59.000Z</time>
      </trkpt>
      <trkpt lat="45.59709" lon="2.73815">
        <ele>976.9</ele>
        <time>56108-01-20T12:33:19.000Z</time>
      </trkpt>
      <trkpt lat="45.5972" lon="2.73825">
        <ele>976.8</ele>
        <time>56108-01-20T14:46:39.000Z</time>
      </trkpt>
      <trkpt lat="45.59725" lon="2.73838">
        <ele>978.1</ele>
        <time>56108-01-20T17:33:19.000Z</time>
      </trkpt>
      <trkpt lat="45.59721" lon="2.73859">
        <ele>977.6</ele>
        <time>56108-01-20T20:36:39.000Z</time>
      </trkpt>
      <trkpt lat="45.59719" lon="2.7391">
        <ele>973.9</ele>
        <time>56108-01-21T03:33:19.000Z</time>
      </trkpt>
      <trkpt lat="45.59709" lon="2.73941">
        <ele>970.7</ele>
        <time>56108-01-21T09:06:39.000Z</time>
      </trkpt>
      <trkpt lat="45.59708" lon="2.73968">
        <ele>968.7</ele>
        <time>56108-01-21T13:33:19.000Z</time>
      </trkpt>
      <trkpt lat="45.59713" lon="2.74008">
        <ele>966.9</ele>
        <time>56108-01-21T20:13:19.000Z</time>
      </trkpt>
      <trkpt lat="45.59714" lon="2.7404">
        <ele>965.5</ele>
        <time>56108-01-22T01:46:39.000Z</time>
      </trkpt>
      <trkpt lat="45.59702" lon="2.74117">
        <ele>965.9</ele>
        <time>56108-01-22T13:59:59.000Z</time>
      </trkpt>
      <trkpt lat="45.59704" lon="2.74153">
        <ele>966.5</ele>
        <time>56108-01-22T20:06:39.000Z</time>
      </trkpt>
      <trkpt lat="45.597" lon="2.74198">
        <ele>966.5</ele>
        <time>56108-01-23T03:53:19.000Z</time>
      </trkpt>
      <trkpt lat="45.59692" lon="2.74226">
        <ele>965.8</ele>
        <time>56108-01-23T11:39:59.000Z</time>
      </trkpt>
      <trkpt lat="45.59697" lon="2.74244">
        <ele>967.9</ele>
        <time>56108-01-24T01:33:19.000Z</time>
      </trkpt>
      <trkpt lat="45.5969" lon="2.74274">
        <ele>969.4</ele>
        <time>56108-01-24T08:46:39.000Z</time>
      </trkpt>
      <trkpt lat="45.59685" lon="2.74285">
        <ele>968.8</ele>
        <time>56108-01-24T10:59:59.000Z</time>
      </trkpt>
      <trkpt lat="45.59679" lon="2.74329">
        <ele>970.2</ele>
        <time>56108-01-24T17:39:59.000Z</time>
      </trkpt>
      <trkpt lat="45.59669" lon="2.74354">
        <ele>969.2</ele>
        <time>56108-01-24T22:39:59.000Z</time>
      </trkpt>
      <trkpt lat="45.59656" lon="2.74411">
        <ele>970.2</ele>
        <time>56108-01-25T08:39:59.000Z</time>
      </trkpt>
      <trkpt lat="45.59622" lon="2.74481">
        <ele>966.1</ele>
        <time>56108-01-25T21:59:59.000Z</time>
      </trkpt>
      <trkpt lat="45.59616" lon="2.74499">
        <ele>966</ele>
        <time>56108-01-26T01:19:59.000Z</time>
      </trkpt>
      <trkpt lat="45.59615" lon="2.74511">
        <ele>966.4</ele>
        <time>56108-01-26T03:33:19.000Z</time>
      </trkpt>
      <trkpt lat="45.59603" lon="2.74545">
        <ele>966.2</ele>
        <time>56108-01-26T09:39:59.000Z</time>
      </trkpt>
      <trkpt lat="45.59595" lon="2.74597">
        <ele>967.9</ele>
        <time>56108-01-26T19:39:59.000Z</time>
      </trkpt>
      <trkpt lat="45.59588" lon="2.74612">
        <ele>967.7</ele>
        <time>56108-01-26T22:59:59.000Z</time>
      </trkpt>
      <trkpt lat="45.59593" lon="2.74642">
        <ele>969.4</ele>
        <time>56108-01-27T03:26:39.000Z</time>
      </trkpt>
      <trkpt lat="45.59592" lon="2.74654">
        <ele>969.6</ele>
        <time>56108-01-27T05:39:59.000Z</time>
      </trkpt>
      <trkpt lat="45.59586" lon="2.74661">
        <ele>969.1</ele>
        <time>56108-01-27T07:53:19.000Z</time>
      </trkpt>
      <trkpt lat="45.59561" lon="2.74668">
        <ele>969.1</ele>
        <time>56108-01-27T12:53:19.000Z</time>
      </trkpt>
      <trkpt lat="45.59559" lon="2.74676">
        <ele>970</ele>
        <time>56108-01-27T16:46:39.000Z</time>
      </trkpt>
      <trkpt lat="45.59562" lon="2.74688">
        <ele>970.9</ele>
        <time>56108-01-27T20:39:59.000Z</time>
      </trkpt>
      <trkpt lat="45.59558" lon="2.74691">
        <ele>971.5</ele>
        <time>56108-01-27T23:59:59.000Z</time>
      </trkpt>
      <trkpt lat="45.59557" lon="2.74696">
        <ele>972</ele>
        <time>56108-01-28T08:36:39.000Z</time>
      </trkpt>
      <trkpt lat="45.59551" lon="2.74697">
        <ele>972.5</ele>
        <time>56108-01-28T19:09:59.000Z</time>
      </trkpt>
      <trkpt lat="45.59562" lon="2.7473">
        <ele>974.9</ele>
        <time>56108-01-29T02:56:39.000Z</time>
      </trkpt>
      <trkpt lat="45.5955" lon="2.74776">
        <ele>976.7</ele>
        <time>56108-01-29T10:09:59.000Z</time>
      </trkpt>
      <trkpt lat="45.59537" lon="2.74862">
        <ele>969.2</ele>
        <time>56108-01-30T03:23:19.000Z</time>
      </trkpt>
      <trkpt lat="45.59526" lon="2.74885">
        <ele>965.1</ele>
        <time>56108-01-30T10:03:19.000Z</time>
      </trkpt>
      <trkpt lat="45.59518" lon="2.74923">
        <ele>958.5</ele>
        <time>56108-01-30T19:29:59.000Z</time>
      </trkpt>
      <trkpt lat="45.59513" lon="2.7496">
        <ele>954.6</ele>
        <time>56108-01-31T02:43:19.000Z</time>
      </trkpt>
      <trkpt lat="45.59513" lon="2.75001">
        <ele>954</ele>
        <time>56108-01-31T11:36:39.000Z</time>
      </trkpt>
      <trkpt lat="45.59508" lon="2.75011">
        <ele>951.8</ele>
        <time>56108-01-31T17:43:19.000Z</time>
      </trkpt>
      <trkpt lat="45.59504" lon="2.75055">
        <ele>948.6</ele>
        <time>56108-02-01T11:13:19.000Z</time>
      </trkpt>
      <trkpt lat="45.59497" lon="2.75083">
        <ele>945.1</ele>
        <time>56108-02-01T15:39:59.000Z</time>
      </trkpt>
      <trkpt lat="45.59487" lon="2.75104">
        <ele>941.5</ele>
        <time>56108-02-01T20:06:39.000Z</time>
      </trkpt>
      <trkpt lat="45.59466" lon="2.75163">
        <ele>932.9</ele>
        <time>56108-02-02T08:53:19.000Z</time>
      </trkpt>
      <trkpt lat="45.59469" lon="2.75192">
        <ele>929.4</ele>
        <time>56108-02-02T15:33:19.000Z</time>
      </trkpt>
      <trkpt lat="45.59463" lon="2.75206">
        <ele>925.7</ele>
        <time>56108-02-03T08:13:19.000Z</time>
      </trkpt>
      <trkpt lat="45.59452" lon="2.75274">
        <ele>922.6</ele>
        <time>56108-02-03T20:09:59.000Z</time>
      </trkpt>
      <trkpt lat="45.59441" lon="2.75305">
        <ele>917.7</ele>
        <time>56108-02-04T02:33:19.000Z</time>
      </trkpt>
      <trkpt lat="45.59434" lon="2.75361">
        <ele>911.4</ele>
        <time>56108-02-04T13:39:59.000Z</time>
      </trkpt>
      <trkpt lat="45.5944" lon="2.75384">
        <ele>910.7</ele>
        <time>56108-02-05T18:28:23.000Z</time>
      </trkpt>
      <trkpt lat="45.59446" lon="2.75387">
        <ele>911.6</ele>
        <time>56108-02-06T03:26:40.000Z</time>
      </trkpt>
      <trkpt lat="45.59437" lon="2.75386">
        <ele>909.8</ele>
        <time>56108-02-06T10:06:40.000Z</time>
      </trkpt>
      <trkpt lat="45.59421" lon="2.75435">
        <ele>902.3</ele>
        <time>56108-02-06T20:23:20.000Z</time>
      </trkpt>
      <trkpt lat="45.59401" lon="2.75464">
        <ele>898.7</ele>
        <time>56108-02-07T03:03:20.000Z</time>
      </trkpt>
      <trkpt lat="45.59374" lon="2.75493">
        <ele>894.8</ele>
        <time>56108-02-07T11:06:40.000Z</time>
      </trkpt>
      <trkpt lat="45.59371" lon="2.75504">
        <ele>894.5</ele>
        <time>56108-02-07T13:20:00.000Z</time>
      </trkpt>
      <trkpt lat="45.59382" lon="2.7557">
        <ele>897</ele>
        <time>56108-02-08T01:33:20.000Z</time>
      </trkpt>
      <trkpt lat="45.5939" lon="2.75652">
        <ele>896.2</ele>
        <time>56108-02-08T14:20:00.000Z</time>
      </trkpt>
      <trkpt lat="45.59407" lon="2.75716">
        <ele>896</ele>
        <time>56108-02-09T02:33:20.000Z</time>
      </trkpt>
      <trkpt lat="45.59414" lon="2.75777">
        <ele>897.7</ele>
        <time>56108-02-09T12:00:00.000Z</time>
      </trkpt>
      <trkpt lat="45.59409" lon="2.75813">
        <ele>897.5</ele>
        <time>56108-02-09T17:00:00.000Z</time>
      </trkpt>
      <trkpt lat="45.59393" lon="2.75872">
        <ele>897.8</ele>
        <time>56108-02-10T03:33:20.000Z</time>
      </trkpt>
      <trkpt lat="45.59375" lon="2.759">
        <ele>897.4</ele>
        <time>56108-02-10T10:13:20.000Z</time>
      </trkpt>
      <trkpt lat="45.59364" lon="2.75935">
        <ele>897.9</ele>
        <time>56108-02-10T16:20:00.000Z</time>
      </trkpt>
      <trkpt lat="45.5936" lon="2.75982">
        <ele>898.9</ele>
        <time>56108-02-11T00:06:40.000Z</time>
      </trkpt>
      <trkpt lat="45.59359" lon="2.76092">
        <ele>901.8</ele>
        <time>56108-02-11T19:00:00.000Z</time>
      </trkpt>
      <trkpt lat="45.59367" lon="2.76119">
        <ele>902.8</ele>
        <time>56108-02-12T00:33:20.000Z</time>
      </trkpt>
      <trkpt lat="45.59372" lon="2.76128">
        <ele>903.5</ele>
        <time>56108-02-12T02:46:40.000Z</time>
      </trkpt>
      <trkpt lat="45.59389" lon="2.76147">
        <ele>905.2</ele>
        <time>56108-02-12T08:20:00.000Z</time>
      </trkpt>
      <trkpt lat="45.59421" lon="2.76171">
        <ele>909.3</ele>
        <time>56108-02-12T18:20:00.000Z</time>
      </trkpt>
      <trkpt lat="45.59471" lon="2.76228">
        <ele>913.6</ele>
        <time>56108-02-13T06:33:20.000Z</time>
      </trkpt>
      <trkpt lat="45.59478" lon="2.7624">
        <ele>917.8</ele>
        <time>56108-02-13T09:20:00.000Z</time>
      </trkpt>
      <trkpt lat="45.59481" lon="2.76276">
        <ele>922.2</ele>
        <time>56108-02-13T16:00:00.000Z</time>
      </trkpt>
      <trkpt lat="45.59475" lon="2.76327">
        <ele>924.2</ele>
        <time>56108-02-13T23:46:40.000Z</time>
      </trkpt>
      <trkpt lat="45.59458" lon="2.76395">
        <ele>925.1</ele>
        <time>56108-02-14T12:00:00.000Z</time>
      </trkpt>
      <trkpt lat="45.59449" lon="2.76453">
        <ele>925.7</ele>
        <time>56108-02-14T23:06:40.000Z</time>
      </trkpt>
      <trkpt lat="45.59439" lon="2.76478">
        <ele>925.8</ele>
        <time>56108-02-15T03:33:20.000Z</time>
      </trkpt>
      <trkpt lat="45.59445" lon="2.76519">
        <ele>928.5</ele>
        <time>56108-02-15T11:20:00.000Z</time>
      </trkpt>
      <trkpt lat="45.59434" lon="2.76538">
        <ele>928.7</ele>
        <time>56108-02-15T18:33:20.000Z</time>
      </trkpt>
      <trkpt lat="45.59435" lon="2.76559">
        <ele>930.4</ele>
        <time>56108-02-16T14:50:00.000Z</time>
      </trkpt>
      <trkpt lat="45.59432" lon="2.76565">
        <ele>931.3</ele>
        <time>56108-02-16T17:03:20.000Z</time>
      </trkpt>
      <trkpt lat="45.5943" lon="2.76563">
        <ele>930.5</ele>
        <time>56108-02-17T00:50:00.000Z</time>
      </trkpt>
      <trkpt lat="45.59437" lon="2.76572">
        <ele>934.1</ele>
        <time>56108-02-18T01:50:00.000Z</time>
      </trkpt>
      <trkpt lat="45.59456" lon="2.76578">
        <ele>939.8</ele>
        <time>56108-02-18T04:53:20.000Z</time>
      </trkpt>
      <trkpt lat="45.5948" lon="2.76572">
        <ele>942.1</ele>
        <time>56108-02-18T19:20:00.000Z</time>
      </trkpt>
      <trkpt lat="45.5948" lon="2.7658">
        <ele>945.2</ele>
        <time>56108-02-19T03:06:40.000Z</time>
      </trkpt>
      <trkpt lat="45.59475" lon="2.76592">
        <ele>948.8</ele>
        <time>56108-02-19T08:40:00.000Z</time>
      </trkpt>
      <trkpt lat="45.59474" lon="2.76619">
        <ele>958.8</ele>
        <time>56108-02-19T12:00:00.000Z</time>
      </trkpt>
      <trkpt lat="45.59459" lon="2.7664">
        <ele>963.6</ele>
        <time>56108-02-19T20:20:00.000Z</time>
      </trkpt>
      <trkpt lat="45.59458" lon="2.76617">
        <ele>954.1</ele>
        <time>56108-02-20T06:53:20.000Z</time>
      </trkpt>
      <trkpt lat="45.59455" lon="2.76629">
        <ele>958.5</ele>
        <time>56108-02-20T21:03:20.000Z</time>
      </trkpt>
      <trkpt lat="45.59458" lon="2.76631">
        <ele>959.8</ele>
        <time>56108-02-21T05:40:00.000Z</time>
      </trkpt>
      <trkpt lat="45.59452" lon="2.76628">
        <ele>957.1</ele>
        <time>56108-02-22T01:23:20.000Z</time>
      </trkpt>
      <trkpt lat="45.5945" lon="2.76632">
        <ele>958.3</ele>
        <time>56108-02-22T03:36:40.000Z</time>
      </trkpt>
      <trkpt lat="45.59453" lon="2.76647">
        <ele>964.9</ele>
        <time>56108-02-22T11:23:20.000Z</time>
      </trkpt>
      <trkpt lat="45.59447" lon="2.76649">
        <ele>964.3</ele>
        <time>56108-02-22T19:43:20.000Z</time>
      </trkpt>
      <trkpt lat="45.59451" lon="2.76639">
        <ele>961.4</ele>
        <time>56108-02-23T01:50:00.000Z</time>
      </trkpt>
      <trkpt lat="45.5946" lon="2.7665">
        <ele>967.4</ele>
        <time>56108-02-23T11:16:40.000Z</time>
      </trkpt>
      <trkpt lat="45.5947" lon="2.76655">
        <ele>970.9</ele>
        <time>56108-02-23T14:03:20.000Z</time>
      </trkpt>
      <trkpt lat="45.59476" lon="2.76652">
        <ele>971.1</ele>
        <time>56108-02-23T21:16:40.000Z</time>
      </trkpt>
      <trkpt lat="45.59483" lon="2.76638">
        <ele>968.2</ele>
        <time>56108-02-24T06:43:20.000Z</time>
      </trkpt>
      <trkpt lat="45.59494" lon="2.76627">
        <ele>966.9</ele>
        <time>56108-02-24T10:36:40.000Z</time>
      </trkpt>
      <trkpt lat="45.59511" lon="2.76633">
        <ele>970</ele>
        <time>56108-02-24T13:56:40.000Z</time>
      </trkpt>
      <trkpt lat="45.59514" lon="2.76643">
        <ele>972.9</ele>
        <time>56108-02-24T16:10:00.000Z</time>
      </trkpt>
      <trkpt lat="45.59509" lon="2.76663">
        <ele>978.1</ele>
        <time>56108-02-24T22:16:40.000Z</time>
      </trkpt>
      <trkpt lat="45.59504" lon="2.7671">
        <ele>985.6</ele>
        <time>56108-02-25T13:50:00.000Z</time>
      </trkpt>
      <trkpt lat="45.59514" lon="2.76758">
        <ele>990.2</ele>
        <time>56108-02-26T02:36:40.000Z</time>
      </trkpt>
      <trkpt lat="45.59506" lon="2.76783">
        <ele>996.4</ele>
        <time>56108-02-26T12:36:40.000Z</time>
      </trkpt>
      <trkpt lat="45.595" lon="2.76826">
        <ele>1002.5</ele>
        <time>56108-02-26T23:10:00.000Z</time>
      </trkpt>
      <trkpt lat="45.59501" lon="2.76836">
        <ele>1003.3</ele>
        <time>56108-02-27T01:23:20.000Z</time>
      </trkpt>
      <trkpt lat="45.5951" lon="2.7685">
        <ele>1004.1</ele>
        <time>56108-02-27T04:10:00.000Z</time>
      </trkpt>
      <trkpt lat="45.59511" lon="2.76875">
        <ele>1007.5</ele>
        <time>56108-02-27T08:36:40.000Z</time>
      </trkpt>
      <trkpt lat="45.59496" lon="2.7694">
        <ele>1018</ele>
        <time>56108-02-28T03:29:59.000Z</time>
      </trkpt>
      <trkpt lat="45.59501" lon="2.76977">
        <ele>1021.8</ele>
        <time>56108-02-28T14:36:39.000Z</time>
      </trkpt>
      <trkpt lat="45.59497" lon="2.77001">
        <ele>1026.4</ele>
        <time>56108-02-28T20:09:59.000Z</time>
      </trkpt>
      <trkpt lat="45.59498" lon="2.77024">
        <ele>1029.5</ele>
        <time>56108-02-29T02:33:19.000Z</time>
      </trkpt>
      <trkpt lat="45.59487" lon="2.77058">
        <ele>1035.9</ele>
        <time>56108-02-29T17:33:19.000Z</time>
      </trkpt>
      <trkpt lat="45.59522" lon="2.77069">
        <ele>1039.7</ele>
        <time>56108-03-01T07:59:59.000Z</time>
      </trkpt>
      <trkpt lat="45.59543" lon="2.77086">
        <ele>1042.5</ele>
        <time>56108-03-01T14:39:59.000Z</time>
      </trkpt>
      <trkpt lat="45.59548" lon="2.77096">
        <ele>1044.2</ele>
        <time>56108-03-01T22:26:39.000Z</time>
      </trkpt>
      <trkpt lat="45.59528" lon="2.7712">
        <ele>1051</ele>
        <time>56108-03-02T06:46:39.000Z</time>
      </trkpt>
      <trkpt lat="45.59523" lon="2.77167">
        <ele>1055.6</ele>
        <time>56108-03-02T20:06:39.000Z</time>
      </trkpt>
      <trkpt lat="45.59521" lon="2.7717">
        <ele>1055.6</ele>
        <time>56108-03-02T21:13:19.000Z</time>
      </trkpt>
      <trkpt lat="45.59519" lon="2.77166">
        <ele>1055.4</ele>
        <time>56108-03-03T10:49:59.000Z</time>
      </trkpt>
      <trkpt lat="45.59518" lon="2.77175">
        <ele>1055.5</ele>
        <time>56108-03-03T20:16:39.000Z</time>
      </trkpt>
      <trkpt lat="45.59526" lon="2.77196">
        <ele>1056</ele>
        <time>56108-03-04T04:36:39.000Z</time>
      </trkpt>
      <trkpt lat="45.59538" lon="2.77216">
        <ele>1055.2</ele>
        <time>56108-03-04T10:43:19.000Z</time>
      </trkpt>
      <trkpt lat="45.59534" lon="2.77225">
        <ele>1056</ele>
        <time>56108-03-04T20:26:39.000Z</time>
      </trkpt>
      <trkpt lat="45.59534" lon="2.77248">
        <ele>1058.9</ele>
        <time>56108-03-05T01:43:19.000Z</time>
      </trkpt>
      <trkpt lat="45.59525" lon="2.77251">
        <ele>1060.1</ele>
        <time>56108-03-05T03:56:39.000Z</time>
      </trkpt>
      <trkpt lat="45.5952" lon="2.77248">
        <ele>1059.5</ele>
        <time>56108-03-06T22:59:59.000Z</time>
      </trkpt>
      <trkpt lat="45.59531" lon="2.77255">
        <ele>1060.3</ele>
        <time>56108-03-07T05:06:39.000Z</time>
      </trkpt>
      <trkpt lat="45.59532" lon="2.77261">
        <ele>1060.9</ele>
        <time>56108-03-07T05:39:59.000Z</time>
      </trkpt>
      <trkpt lat="45.59529" lon="2.77301">
        <ele>1066.4</ele>
        <time>56108-03-07T12:53:19.000Z</time>
      </trkpt>
      <trkpt lat="45.59514" lon="2.77357">
        <ele>1067.3</ele>
        <time>56108-03-07T23:59:59.000Z</time>
      </trkpt>
      <trkpt lat="45.59497" lon="2.7737">
        <ele>1066.4</ele>
        <time>56108-03-08T04:59:59.000Z</time>
      </trkpt>
      <trkpt lat="45.59488" lon="2.77371">
        <ele>1064.7</ele>
        <time>56108-03-08T10:33:19.000Z</time>
      </trkpt>
      <trkpt lat="45.59497" lon="2.77371">
        <ele>1066.5</ele>
        <time>56108-03-09T08:13:19.000Z</time>
      </trkpt>
      <trkpt lat="45.59511" lon="2.77359">
        <ele>1067</ele>
        <time>56108-03-09T13:13:19.000Z</time>
      </trkpt>
      <trkpt lat="45.59515" lon="2.77362">
        <ele>1067.7</ele>
        <time>56108-03-09T23:46:39.000Z</time>
      </trkpt>
      <trkpt lat="45.59519" lon="2.77371">
        <ele>1068.6</ele>
        <time>56108-03-10T01:59:59.000Z</time>
      </trkpt>
      <trkpt lat="45.5951" lon="2.77464">
        <ele>1076.1</ele>
        <time>56108-03-10T19:13:19.000Z</time>
      </trkpt>
      <trkpt lat="45.59516" lon="2.77523">
        <ele>1082.5</ele>
        <time>56108-03-11T07:59:59.000Z</time>
      </trkpt>
      <trkpt lat="45.59523" lon="2.77553">
        <ele>1086.4</ele>
        <time>56108-03-11T14:06:39.000Z</time>
      </trkpt>
      <trkpt lat="45.59518" lon="2.77546">
        <ele>1085.2</ele>
        <time>56108-03-12T02:36:39.000Z</time>
      </trkpt>
      <trkpt lat="45.59521" lon="2.77548">
        <ele>1085.7</ele>
        <time>56108-03-12T05:23:19.000Z</time>
      </trkpt>
      <trkpt lat="45.59526" lon="2.77593">
        <ele>1090.9</ele>
        <time>56108-03-12T19:33:19.000Z</time>
      </trkpt>
      <trkpt lat="45.59536" lon="2.77624">
        <ele>1095</ele>
        <time>56108-03-13T00:49:59.000Z</time>
      </trkpt>
      <trkpt lat="45.59546" lon="2.77679">
        <ele>1102.9</ele>
        <time>56108-03-13T14:43:19.000Z</time>
      </trkpt>
      <trkpt lat="45.59542" lon="2.77772">
        <ele>1114.8</ele>
        <time>56108-03-14T17:23:19.000Z</time>
      </trkpt>
      <trkpt lat="45.59555" lon="2.77784">
        <ele>1119.7</ele>
        <time>56108-03-15T01:43:19.000Z</time>
      </trkpt>
      <trkpt lat="45.59565" lon="2.77786">
        <ele>1122.4</ele>
        <time>56108-03-15T04:29:59.000Z</time>
      </trkpt>
      <trkpt lat="45.5959" lon="2.77782">
        <ele>1127.3</ele>
        <time>56108-03-15T15:19:59.000Z</time>
      </trkpt>
      <trkpt lat="45.59602" lon="2.77776">
        <ele>1128.7</ele>
        <time>56108-03-15T23:39:59.000Z</time>
      </trkpt>
      <trkpt lat="45.59621" lon="2.77789">
        <ele>1134.9</ele>
        <time>56108-03-16T07:59:59.000Z</time>
      </trkpt>
      <trkpt lat="45.59669" lon="2.77803">
        <ele>1145.7</ele>
        <time>56108-03-17T21:29:59.000Z</time>
      </trkpt>
      <trkpt lat="45.59703" lon="2.77825">
        <ele>1156.5</ele>
        <time>56108-03-18T13:53:19.000Z</time>
      </trkpt>
      <trkpt lat="45.59713" lon="2.77822">
        <ele>1158</ele>
        <time>56108-03-18T21:06:39.000Z</time>
      </trkpt>
      <trkpt lat="45.59721" lon="2.77829">
        <ele>1161.5</ele>
        <time>56108-03-19T20:09:59.000Z</time>
      </trkpt>
      <trkpt lat="45.59735" lon="2.77829">
        <ele>1165.5</ele>
        <time>56108-03-20T01:26:39.000Z</time>
      </trkpt>
      <trkpt lat="45.59747" lon="2.77839">
        <ele>1171.5</ele>
        <time>56108-03-20T18:06:39.000Z</time>
      </trkpt>
      <trkpt lat="45.59758" lon="2.77834">
        <ele>1173.2</ele>
        <time>56108-03-20T22:33:19.000Z</time>
      </trkpt>
      <trkpt lat="45.59774" lon="2.7784">
        <ele>1178.9</ele>
        <time>56108-03-21T05:13:19.000Z</time>
      </trkpt>
      <trkpt lat="45.59789" lon="2.77832">
        <ele>1180</ele>
        <time>56108-03-21T11:53:19.000Z</time>
      </trkpt>
      <trkpt lat="45.59812" lon="2.77827">
        <ele>1183.3</ele>
        <time>56108-03-21T21:19:59.000Z</time>
      </trkpt>
      <trkpt lat="45.59838" lon="2.77815">
        <ele>1184</ele>
        <time>56108-03-22T08:26:39.000Z</time>
      </trkpt>
      <trkpt lat="45.59844" lon="2.77823">
        <ele>1187.2</ele>
        <time>56108-03-22T12:19:59.000Z</time>
      </trkpt>
      <trkpt lat="45.59856" lon="2.77812">
        <ele>1185.9</ele>
        <time>56108-03-22T20:23:19.000Z</time>
      </trkpt>
      <trkpt lat="45.59885" lon="2.7782">
        <ele>1193.5</ele>
        <time>56108-03-23T10:16:39.000Z</time>
      </trkpt>
      <trkpt lat="45.59926" lon="2.77805">
        <ele>1193.5</ele>
        <time>56108-03-23T22:29:59.000Z</time>
      </trkpt>
      <trkpt lat="45.59958" lon="2.77837">
        <ele>1203.6</ele>
        <time>56108-03-24T10:09:59.000Z</time>
      </trkpt>
      <trkpt lat="45.59982" lon="2.77851">
        <ele>1205.9</ele>
        <time>56108-03-24T18:29:59.000Z</time>
      </trkpt>
      <trkpt lat="45.60003" lon="2.77884">
        <ele>1212.2</ele>
        <time>56108-03-25T04:29:59.000Z</time>
      </trkpt>
      <trkpt lat="45.60006" lon="2.77877">
        <ele>1210.1</ele>
        <time>56108-03-25T11:09:59.000Z</time>
      </trkpt>
      <trkpt lat="45.6003" lon="2.77883">
        <ele>1210</ele>
        <time>56108-03-26T01:03:19.000Z</time>
      </trkpt>
      <trkpt lat="45.60045" lon="2.77921">
        <ele>1221.3</ele>
        <time>56108-03-27T01:29:59.000Z</time>
      </trkpt>
      <trkpt lat="45.60049" lon="2.77916">
        <ele>1220.4</ele>
        <time>56108-03-27T09:49:59.000Z</time>
      </trkpt>
      <trkpt lat="45.60058" lon="2.77921">
        <ele>1222.9</ele>
        <time>56108-03-27T13:26:39.000Z</time>
      </trkpt>
      <trkpt lat="45.60069" lon="2.77922">
        <ele>1226.6</ele>
        <time>56108-03-27T18:59:59.000Z</time>
      </trkpt>
      <trkpt lat="45.60076" lon="2.77934">
        <ele>1231.5</ele>
        <time>56108-03-27T23:59:59.000Z</time>
      </trkpt>
      <trkpt lat="45.60098" lon="2.77947">
        <ele>1241.6</ele>
        <time>56108-03-29T01:49:59.000Z</time>
      </trkpt>
      <trkpt lat="45.60091" lon="2.77939">
        <ele>1237.5</ele>
        <time>56108-03-29T05:09:59.000Z</time>
      </trkpt>
      <trkpt lat="45.60095" lon="2.77935">
        <ele>1238.7</ele>
        <time>56108-03-29T07:56:39.000Z</time>
      </trkpt>
      <trkpt lat="45.60097" lon="2.77926">
        <ele>1237.9</ele>
        <time>56108-03-29T13:29:59.000Z</time>
      </trkpt>
      <trkpt lat="45.60105" lon="2.77912">
        <ele>1239.5</ele>
        <time>56108-03-29T20:43:19.000Z</time>
      </trkpt>
      <trkpt lat="45.60122" lon="2.77895">
        <ele>1243.8</ele>
        <time>56108-03-30T05:19:59.000Z</time>
      </trkpt>
      <trkpt lat="45.60121" lon="2.7788">
        <ele>1240.9</ele>
        <time>56108-03-30T11:59:59.000Z</time>
      </trkpt>
      <trkpt lat="45.60126" lon="2.77872">
        <ele>1240.5</ele>
        <time>56108-03-30T14:46:39.000Z</time>
      </trkpt>
      <trkpt lat="45.6014" lon="2.77882">
        <ele>1247.4</ele>
        <time>56108-03-30T19:13:19.000Z</time>
      </trkpt>
      <trkpt lat="45.60143" lon="2.77905">
        <ele>1253.5</ele>
        <time>56108-03-31T06:19:59.000Z</time>
      </trkpt>
      <trkpt lat="45.60149" lon="2.77892">
        <ele>1253.2</ele>
        <time>56108-03-31T14:39:59.000Z</time>
      </trkpt>
      <trkpt lat="45.60155" lon="2.77891">
        <ele>1255.1</ele>
        <time>56108-03-31T16:53:19.000Z</time>
      </trkpt>
      <trkpt lat="45.60175" lon="2.77894">
        <ele>1263.9</ele>
        <time>56108-04-01T06:13:19.000Z</time>
      </trkpt>
      <trkpt lat="45.6018" lon="2.77898">
        <ele>1266.8</ele>
        <time>56108-04-01T11:13:19.000Z</time>
      </trkpt>
      <trkpt lat="45.60179" lon="2.77903">
        <ele>1268.2</ele>
        <time>56108-04-01T19:16:39.000Z</time>
      </trkpt>
      <trkpt lat="45.60177" lon="2.7789">
        <ele>1263.9</ele>
        <time>56108-04-01T23:09:59.000Z</time>
      </trkpt>
      <trkpt lat="45.60179" lon="2.77883">
        <ele>1262.9</ele>
        <time>56108-04-02T01:23:19.000Z</time>
      </trkpt>
      <trkpt lat="45.60213" lon="2.77884">
        <ele>1278.1</ele>
        <time>56108-04-02T23:19:59.000Z</time>
      </trkpt>
      <trkpt lat="45.60216" lon="2.77888">
        <ele>1280.1</ele>
        <time>56108-04-02T23:53:19.000Z</time>
      </trkpt>
      <trkpt lat="45.60215" lon="2.77893">
        <ele>1281</ele>
        <time>56108-04-03T02:06:39.000Z</time>
      </trkpt>
      <trkpt lat="45.60212" lon="2.77871">
        <ele>1275.1</ele>
        <time>56108-04-03T11:33:19.000Z</time>
      </trkpt>
      <trkpt lat="45.60219" lon="2.77871">
        <ele>1278.1</ele>
        <time>56108-04-04T02:49:59.000Z</time>
      </trkpt>
      <trkpt lat="45.60221" lon="2.77845">
        <ele>1275.5</ele>
        <time>56108-04-04T10:03:19.000Z</time>
      </trkpt>
      <trkpt lat="45.60231" lon="2.77831">
        <ele>1279.4</ele>
        <time>56108-04-04T17:49:59.000Z</time>
      </trkpt>
      <trkpt lat="45.60238" lon="2.77815">
        <ele>1282.9</ele>
        <time>56108-04-04T21:43:19.000Z</time>
      </trkpt>
      <trkpt lat="45.6024" lon="2.77777">
        <ele>1285.8</ele>
        <time>56108-04-05T10:29:59.000Z</time>
      </trkpt>
      <trkpt lat="45.60254" lon="2.77734">
        <ele>1294.4</ele>
        <time>56108-04-06T00:23:19.000Z</time>
      </trkpt>
      <trkpt lat="45.60255" lon="2.77705">
        <ele>1295.7</ele>
        <time>56108-04-06T07:36:39.000Z</time>
      </trkpt>
      <trkpt lat="45.60262" lon="2.77704">
        <ele>1298.7</ele>
        <time>56108-04-06T11:29:59.000Z</time>
      </trkpt>
      <trkpt lat="45.60267" lon="2.77725">
        <ele>1300.2</ele>
        <time>56108-04-06T15:56:39.000Z</time>
      </trkpt>
      <trkpt lat="45.60279" lon="2.77743">
        <ele>1304.6</ele>
        <time>56108-04-06T23:09:59.000Z</time>
      </trkpt>
      <trkpt lat="45.60292" lon="2.77755">
        <ele>1309.4</ele>
        <time>56108-04-08T01:16:39.000Z</time>
      </trkpt>
      <trkpt lat="45.60298" lon="2.77766">
        <ele>1311.3</ele>
        <time>56108-04-08T06:49:59.000Z</time>
      </trkpt>
      <trkpt lat="45.60296" lon="2.77769">
        <ele>1310.2</ele>
        <time>56108-04-09T01:09:59.000Z</time>
      </trkpt>
      <trkpt lat="45.60303" lon="2.77761">
        <ele>1313.1</ele>
        <time>56108-04-09T12:49:59.000Z</time>
      </trkpt>
      <trkpt lat="45.60305" lon="2.77762">
        <ele>1314.1</ele>
        <time>56108-04-09T14:13:19.000Z</time>
      </trkpt>
      <trkpt lat="45.6033" lon="2.77777">
        <ele>1320.9</ele>
        <time>56108-04-10T00:46:39.000Z</time>
      </trkpt>
      <trkpt lat="45.60343" lon="2.77791">
        <ele>1324.9</ele>
        <time>56108-04-10T12:59:59.000Z</time>
      </trkpt>
      <trkpt lat="45.60332" lon="2.77746">
        <ele>1326</ele>
        <time>56108-04-11T02:19:59.000Z</time>
      </trkpt>
      <trkpt lat="45.60334" lon="2.77733">
        <ele>1327.6</ele>
        <time>56108-04-11T20:06:39.000Z</time>
      </trkpt>
      <trkpt lat="45.60338" lon="2.77726">
        <ele>1329.5</ele>
        <time>56108-04-12T08:19:59.000Z</time>
      </trkpt>
      <trkpt lat="45.60326" lon="2.77708">
        <ele>1325.4</ele>
        <time>56108-04-13T03:29:59.000Z</time>
      </trkpt>
      <trkpt lat="45.60317" lon="2.77663">
        <ele>1322</ele>
        <time>56108-04-13T14:19:59.000Z</time>
      </trkpt>
      <trkpt lat="45.60319" lon="2.77637">
        <ele>1322.1</ele>
        <time>56108-04-14T08:06:39.000Z</time>
      </trkpt>
      <trkpt lat="45.60317" lon="2.77576">
        <ele>1317.2</ele>
        <time>56108-04-14T20:19:59.000Z</time>
      </trkpt>
      <trkpt lat="45.60323" lon="2.77466">
        <ele>1307.3</ele>
        <time>56108-04-15T16:19:59.000Z</time>
      </trkpt>
      <trkpt lat="45.60334" lon="2.77409">
        <ele>1302.4</ele>
        <time>56108-04-16T04:33:19.000Z</time>
      </trkpt>
      <trkpt lat="45.60351" lon="2.77384">
        <ele>1301.7</ele>
        <time>56108-04-16T19:33:19.000Z</time>
      </trkpt>
      <trkpt lat="45.60374" lon="2.77328">
        <ele>1296.7</ele>
        <time>56108-04-17T07:46:39.000Z</time>
      </trkpt>
      <trkpt lat="45.60406" lon="2.77286">
        <ele>1292</ele>
        <time>56108-04-17T18:53:19.000Z</time>
      </trkpt>
      <trkpt lat="45.60418" lon="2.77282">
        <ele>1291.6</ele>
        <time>56108-04-17T22:13:19.000Z</time>
      </trkpt>
      <trkpt lat="45.60434" lon="2.77287">
        <ele>1291.7</ele>
        <time>56108-04-18T02:39:59.000Z</time>
      </trkpt>
      <trkpt lat="45.60481" lon="2.7732">
        <ele>1295.2</ele>
        <time>56108-04-18T18:13:19.000Z</time>
      </trkpt>
      <trkpt lat="45.60513" lon="2.77323">
        <ele>1293.6</ele>
        <time>56108-04-19T03:39:59.000Z</time>
      </trkpt>
      <trkpt lat="45.60555" lon="2.77355">
        <ele>1294.3</ele>
        <time>56108-04-19T15:19:59.000Z</time>
      </trkpt>
      <trkpt lat="45.60578" lon="2.77375">
        <ele>1291.5</ele>
        <time>56108-04-19T22:33:19.000Z</time>
      </trkpt>
      <trkpt lat="45.60589" lon="2.7739">
        <ele>1290.7</ele>
        <time>56108-04-20T02:26:39.000Z</time>
      </trkpt>
      <trkpt lat="45.60612" lon="2.774">
        <ele>1282.3</ele>
        <time>56108-04-20T09:06:39.000Z</time>
      </trkpt>
      <trkpt lat="45.60624" lon="2.77411">
        <ele>1279.6</ele>
        <time>56108-04-20T12:59:59.000Z</time>
      </trkpt>
      <trkpt lat="45.60643" lon="2.7742">
        <ele>1273.2</ele>
        <time>56108-04-20T20:13:19.000Z</time>
      </trkpt>
      <trkpt lat="45.60667" lon="2.77442">
        <ele>1268.3</ele>
        <time>56108-04-21T04:33:19.000Z</time>
      </trkpt>
      <trkpt lat="45.60697" lon="2.77474">
        <ele>1267.1</ele>
        <time>56108-04-21T14:33:19.000Z</time>
      </trkpt>
      <trkpt lat="45.6071" lon="2.77483">
        <ele>1267</ele>
        <time>56108-04-21T20:06:39.000Z</time>
      </trkpt>
      <trkpt lat="45.60715" lon="2.77507">
        <ele>1271.9</ele>
        <time>56108-04-22T08:19:59.000Z</time>
      </trkpt>
      <trkpt lat="45.60711" lon="2.77494">
        <ele>1269.2</ele>
        <time>56108-04-22T17:46:39.000Z</time>
      </trkpt>
      <trkpt lat="45.60716" lon="2.77489">
        <ele>1267.1</ele>
        <time>56108-04-22T19:26:39.000Z</time>
      </trkpt>
      <trkpt lat="45.60719" lon="2.77501">
        <ele>1269.1</ele>
        <time>56108-04-23T10:09:59.000Z</time>
      </trkpt>
      <trkpt lat="45.60726" lon="2.77501">
        <ele>1268.4</ele>
        <time>56108-04-23T12:06:39.000Z</time>
      </trkpt>
      <trkpt lat="45.6073" lon="2.77506">
        <ele>1269.6</ele>
        <time>56108-04-23T20:59:59.000Z</time>
      </trkpt>
      <trkpt lat="45.60745" lon="2.77498">
        <ele>1267.7</ele>
        <time>56108-04-24T01:59:59.000Z</time>
      </trkpt>
      <trkpt lat="45.60749" lon="2.77489">
        <ele>1266.4</ele>
        <time>56108-04-24T03:39:59.000Z</time>
      </trkpt>
      <trkpt lat="45.60746" lon="2.77469">
        <ele>1263.5</ele>
        <time>56108-04-24T08:39:59.000Z</time>
      </trkpt>
      <trkpt lat="45.6075" lon="2.77421">
        <ele>1262.3</ele>
        <time>56108-04-24T17:33:19.000Z</time>
      </trkpt>
      <trkpt lat="45.60766" lon="2.77355">
        <ele>1268.6</ele>
        <time>56108-04-25T06:53:19.000Z</time>
      </trkpt>
      <trkpt lat="45.60764" lon="2.77299">
        <ele>1264.3</ele>
        <time>56108-04-25T15:46:39.000Z</time>
      </trkpt>
      <trkpt lat="45.60781" lon="2.77247">
        <ele>1269.5</ele>
        <time>56108-04-26T03:59:59.000Z</time>
      </trkpt>
      <trkpt lat="45.60776" lon="2.77192">
        <ele>1264.9</ele>
        <time>56108-04-26T13:26:39.000Z</time>
      </trkpt>
      <trkpt lat="45.60769" lon="2.7717">
        <ele>1261.6</ele>
        <time>56108-04-26T17:53:19.000Z</time>
      </trkpt>
      <trkpt lat="45.60768" lon="2.77151">
        <ele>1260.3</ele>
        <time>56108-04-26T21:13:19.000Z</time>
      </trkpt>
      <trkpt lat="45.60776" lon="2.77113">
        <ele>1263.1</ele>
        <time>56108-04-27T04:26:39.000Z</time>
      </trkpt>
      <trkpt lat="45.60773" lon="2.76983">
        <ele>1256.2</ele>
        <time>56108-04-28T03:46:39.000Z</time>
      </trkpt>
      <trkpt lat="45.6078" lon="2.76964">
        <ele>1258.2</ele>
        <time>56108-04-28T07:06:39.000Z</time>
      </trkpt>
      <trkpt lat="45.60798" lon="2.76949">
        <ele>1263.4</ele>
        <time>56108-04-28T12:39:59.000Z</time>
      </trkpt>
      <trkpt lat="45.6081" lon="2.76931">
        <ele>1267</ele>
        <time>56108-04-28T16:33:19.000Z</time>
      </trkpt>
      <trkpt lat="45.60817" lon="2.76909">
        <ele>1267.6</ele>
        <time>56108-04-28T20:59:59.000Z</time>
      </trkpt>
      <trkpt lat="45.60817" lon="2.76856">
        <ele>1262.4</ele>
        <time>56108-04-29T05:53:19.000Z</time>
      </trkpt>
      <trkpt lat="45.60813" lon="2.76827">
        <ele>1258.8</ele>
        <time>56108-04-29T11:59:59.000Z</time>
      </trkpt>
      <trkpt lat="45.60814" lon="2.76788">
        <ele>1256.6</ele>
        <time>56108-04-29T19:29:59.000Z</time>
      </trkpt>
      <trkpt lat="45.60809" lon="2.76753">
        <ele>1253.3</ele>
        <time>56108-04-30T01:36:39.000Z</time>
      </trkpt>
      <trkpt lat="45.60808" lon="2.76706">
        <ele>1252.9</ele>
        <time>56108-04-30T09:56:39.000Z</time>
      </trkpt>
      <trkpt lat="45.60805" lon="2.76675">
        <ele>1251.8</ele>
        <time>56108-04-30T15:29:59.000Z</time>
      </trkpt>
      <trkpt lat="45.60798" lon="2.7666">
        <ele>1251.4</ele>
        <time>56108-04-30T18:49:59.000Z</time>
      </trkpt>
      <trkpt lat="45.6078" lon="2.76636">
        <ele>1250.8</ele>
        <time>56108-05-01T01:29:59.000Z</time>
      </trkpt>
      <trkpt lat="45.6076" lon="2.76623">
        <ele>1250.7</ele>
        <time>56108-05-01T07:03:19.000Z</time>
      </trkpt>
      <trkpt lat="45.607" lon="2.76615">
        <ele>1247.2</ele>
        <time>56108-05-01T20:56:39.000Z</time>
      </trkpt>
      <trkpt lat="45.60683" lon="2.76617">
        <ele>1246.5</ele>
        <time>56108-05-02T01:23:19.000Z</time>
      </trkpt>
      <trkpt lat="45.60658" lon="2.76604">
        <ele>1249.9</ele>
        <time>56108-05-02T10:16:39.000Z</time>
      </trkpt>
      <trkpt lat="45.60616" lon="2.76601">
        <ele>1249.3</ele>
        <time>56108-05-02T20:16:39.000Z</time>
      </trkpt>
      <trkpt lat="45.60557" lon="2.76562">
        <ele>1253</ele>
        <time>56108-05-03T13:29:59.000Z</time>
      </trkpt>
      <trkpt lat="45.60548" lon="2.76549">
        <ele>1255.2</ele>
        <time>56108-05-03T16:49:59.000Z</time>
      </trkpt>
      <trkpt lat="45.60551" lon="2.76525">
        <ele>1261.4</ele>
        <time>56108-05-03T21:16:39.000Z</time>
      </trkpt>
      <trkpt lat="45.6055" lon="2.76497">
        <ele>1262.2</ele>
        <time>56108-05-04T02:16:39.000Z</time>
      </trkpt>
      <trkpt lat="45.60553" lon="2.76482">
        <ele>1262</ele>
        <time>56108-05-04T05:36:39.000Z</time>
      </trkpt>
      <trkpt lat="45.60579" lon="2.7644">
        <ele>1264</ele>
        <time>56108-05-04T14:29:59.000Z</time>
      </trkpt>
      <trkpt lat="45.60586" lon="2.76414">
        <ele>1264.5</ele>
        <time>56108-05-04T20:03:19.000Z</time>
      </trkpt>
      <trkpt lat="45.60585" lon="2.76384">
        <ele>1263.1</ele>
        <time>56108-05-05T00:29:59.000Z</time>
      </trkpt>
      <trkpt lat="45.60591" lon="2.7632">
        <ele>1262.3</ele>
        <time>56108-05-05T11:36:39.000Z</time>
      </trkpt>
      <trkpt lat="45.60588" lon="2.76255">
        <ele>1260.7</ele>
        <time>56108-05-05T23:49:59.000Z</time>
      </trkpt>
      <trkpt lat="45.60589" lon="2.76188">
        <ele>1261.1</ele>
        <time>56108-05-06T12:03:19.000Z</time>
      </trkpt>
      <trkpt lat="45.60601" lon="2.76121">
        <ele>1263.3</ele>
        <time>56108-05-07T00:16:39.000Z</time>
      </trkpt>
      <trkpt lat="45.60602" lon="2.76077">
        <ele>1262</ele>
        <time>56108-05-07T08:53:19.000Z</time>
      </trkpt>
      <trkpt lat="45.60593" lon="2.76013">
        <ele>1258.8</ele>
        <time>56108-05-07T19:59:59.000Z</time>
      </trkpt>
      <trkpt lat="45.60574" lon="2.75956">
        <ele>1252.9</ele>
        <time>56108-05-08T08:46:39.000Z</time>
      </trkpt>
      <trkpt lat="45.6058" lon="2.75954">
        <ele>1255.4</ele>
        <time>56108-05-08T16:33:19.000Z</time>
      </trkpt>
      <trkpt lat="45.60565" lon="2.75936">
        <ele>1249.9</ele>
        <time>56108-05-08T22:06:39.000Z</time>
      </trkpt>
      <trkpt lat="45.60561" lon="2.75914">
        <ele>1248.8</ele>
        <time>56108-05-09T02:49:59.000Z</time>
      </trkpt>
      <trkpt lat="45.60558" lon="2.75817">
        <ele>1248.3</ele>
        <time>56108-05-09T16:09:59.000Z</time>
      </trkpt>
      <trkpt lat="45.60552" lon="2.75775">
        <ele>1244.7</ele>
        <time>56108-05-09T22:49:59.000Z</time>
      </trkpt>
      <trkpt lat="45.60558" lon="2.75709">
        <ele>1245.5</ele>
        <time>56108-05-10T09:06:39.000Z</time>
      </trkpt>
      <trkpt lat="45.60527" lon="2.75639">
        <ele>1233.7</ele>
        <time>56108-05-10T23:49:59.000Z</time>
      </trkpt>
      <trkpt lat="45.60484" lon="2.75583">
        <ele>1221.3</ele>
        <time>56108-05-11T12:53:19.000Z</time>
      </trkpt>
      <trkpt lat="45.60473" lon="2.75549">
        <ele>1219.9</ele>
        <time>56108-05-11T18:26:39.000Z</time>
      </trkpt>
      <trkpt lat="45.6047" lon="2.7553">
        <ele>1220</ele>
        <time>56108-05-11T21:46:39.000Z</time>
      </trkpt>
      <trkpt lat="45.60472" lon="2.75496">
        <ele>1221.7</ele>
        <time>56108-05-12T04:59:59.000Z</time>
      </trkpt>
      <trkpt lat="45.60468" lon="2.75498">
        <ele>1219.9</ele>
        <time>56108-05-12T17:13:19.000Z</time>
      </trkpt>
      <trkpt lat="45.60474" lon="2.75493">
        <ele>1222</ele>
        <time>56108-05-13T03:13:19.000Z</time>
      </trkpt>
      <trkpt lat="45.60474" lon="2.75475">
        <ele>1220.8</ele>
        <time>56108-05-13T04:53:19.000Z</time>
      </trkpt>
      <trkpt lat="45.60488" lon="2.7541">
        <ele>1220.1</ele>
        <time>56108-05-14T08:56:39.000Z</time>
      </trkpt>
      <trkpt lat="45.60483" lon="2.75389">
        <ele>1216.5</ele>
        <time>56108-05-14T12:49:59.000Z</time>
      </trkpt>
      <trkpt lat="45.60487" lon="2.75367">
        <ele>1215.3</ele>
        <time>56108-05-14T17:33:19.000Z</time>
      </trkpt>
      <trkpt lat="45.60503" lon="2.75329">
        <ele>1216.7</ele>
        <time>56108-05-15T00:46:39.000Z</time>
      </trkpt>
      <trkpt lat="45.605" lon="2.75269">
        <ele>1206.8</ele>
        <time>56108-05-15T15:13:19.000Z</time>
      </trkpt>
      <trkpt lat="45.60503" lon="2.75237">
        <ele>1202.6</ele>
        <time>56108-05-15T23:33:19.000Z</time>
      </trkpt>
      <trkpt lat="45.60481" lon="2.75159">
        <ele>1187</ele>
        <time>56108-05-16T15:39:59.000Z</time>
      </trkpt>
      <trkpt lat="45.6048" lon="2.75123">
        <ele>1181.7</ele>
        <time>56108-05-17T02:13:19.000Z</time>
      </trkpt>
      <trkpt lat="45.60465" lon="2.7512">
        <ele>1178.2</ele>
        <time>56108-05-17T10:33:19.000Z</time>
      </trkpt>
      <trkpt lat="45.60468" lon="2.75117">
        <ele>1178.2</ele>
        <time>56108-05-18T01:16:39.000Z</time>
      </trkpt>
      <trkpt lat="45.60458" lon="2.75104">
        <ele>1175.2</ele>
        <time>56108-05-18T06:16:39.000Z</time>
      </trkpt>
      <trkpt lat="45.6045" lon="2.75109">
        <ele>1174.5</ele>
        <time>56108-05-18T12:23:19.000Z</time>
      </trkpt>
      <trkpt lat="45.60436" lon="2.75108">
        <ele>1172.2</ele>
        <time>56108-05-18T14:03:19.000Z</time>
      </trkpt>
      <trkpt lat="45.60412" lon="2.75091">
        <ele>1166.4</ele>
        <time>56108-05-18T21:16:39.000Z</time>
      </trkpt>
      <trkpt lat="45.60383" lon="2.75082">
        <ele>1162.2</ele>
        <time>56108-05-19T06:09:59.000Z</time>
      </trkpt>
      <trkpt lat="45.60378" lon="2.75074">
        <ele>1160.9</ele>
        <time>56108-05-19T08:06:39.000Z</time>
      </trkpt>
      <trkpt lat="45.60374" lon="2.75039">
        <ele>1156.3</ele>
        <time>56108-05-19T14:29:59.000Z</time>
      </trkpt>
      <trkpt lat="45.60368" lon="2.75033">
        <ele>1155.1</ele>
        <time>56108-05-19T18:23:19.000Z</time>
      </trkpt>
      <trkpt lat="45.60341" lon="2.75034">
        <ele>1152.5</ele>
        <time>56108-05-20T02:43:19.000Z</time>
      </trkpt>
      <trkpt lat="45.6033" lon="2.75029">
        <ele>1150.7</ele>
        <time>56108-05-20T05:29:59.000Z</time>
      </trkpt>
      <trkpt lat="45.60297" lon="2.74981">
        <ele>1143.2</ele>
        <time>56108-05-20T18:49:59.000Z</time>
      </trkpt>
      <trkpt lat="45.60279" lon="2.74918">
        <ele>1139.2</ele>
        <time>56108-05-21T07:36:39.000Z</time>
      </trkpt>
      <trkpt lat="45.60281" lon="2.74875">
        <ele>1136.7</ele>
        <time>56108-05-21T14:49:59.000Z</time>
      </trkpt>
      <trkpt lat="45.60279" lon="2.74851">
        <ele>1135.3</ele>
        <time>56108-05-21T18:09:59.000Z</time>
      </trkpt>
      <trkpt lat="45.60269" lon="2.74827">
        <ele>1133.9</ele>
        <time>56108-05-22T01:23:19.000Z</time>
      </trkpt>
      <trkpt lat="45.60266" lon="2.74785">
        <ele>1132.1</ele>
        <time>56108-05-22T09:09:59.000Z</time>
      </trkpt>
      <trkpt lat="45.60259" lon="2.74765">
        <ele>1131.9</ele>
        <time>56108-05-22T13:03:19.000Z</time>
      </trkpt>
      <trkpt lat="45.60253" lon="2.74724">
        <ele>1131.7</ele>
        <time>56108-05-22T21:56:39.000Z</time>
      </trkpt>
      <trkpt lat="45.60256" lon="2.74703">
        <ele>1131.2</ele>
        <time>56108-05-23T01:49:59.000Z</time>
      </trkpt>
      <trkpt lat="45.60272" lon="2.74677">
        <ele>1128.8</ele>
        <time>56108-05-23T07:23:19.000Z</time>
      </trkpt>
      <trkpt lat="45.6028" lon="2.74647">
        <ele>1127</ele>
        <time>56108-05-23T13:29:59.000Z</time>
      </trkpt>
      <trkpt lat="45.60279" lon="2.74626">
        <ele>1126.4</ele>
        <time>56108-05-23T17:23:19.000Z</time>
      </trkpt>
      <trkpt lat="45.60271" lon="2.74592">
        <ele>1126.1</ele>
        <time>56108-05-24T01:43:19.000Z</time>
      </trkpt>
      <trkpt lat="45.60272" lon="2.74566">
        <ele>1123.8</ele>
        <time>56108-05-24T06:09:59.000Z</time>
      </trkpt>
      <trkpt lat="45.60268" lon="2.74552">
        <ele>1122.8</ele>
        <time>56108-05-24T10:36:39.000Z</time>
      </trkpt>
      <trkpt lat="45.60269" lon="2.74538">
        <ele>1121.8</ele>
        <time>56108-05-24T14:29:59.000Z</time>
      </trkpt>
      <trkpt lat="45.60266" lon="2.74536">
        <ele>1121.9</ele>
        <time>56108-05-24T17:16:39.000Z</time>
      </trkpt>
      <trkpt lat="45.60272" lon="2.7451">
        <ele>1118.9</ele>
        <time>56108-05-25T01:36:39.000Z</time>
      </trkpt>
      <trkpt lat="45.60273" lon="2.74488">
        <ele>1116.5</ele>
        <time>56108-05-25T06:03:19.000Z</time>
      </trkpt>
      <trkpt lat="45.60269" lon="2.74451">
        <ele>1114.5</ele>
        <time>56108-05-25T13:16:39.000Z</time>
      </trkpt>
      <trkpt lat="45.6026" lon="2.74421">
        <ele>1113.4</ele>
        <time>56108-05-25T21:03:19.000Z</time>
      </trkpt>
      <trkpt lat="45.60256" lon="2.74373">
        <ele>1109.1</ele>
        <time>56108-05-26T06:29:59.000Z</time>
      </trkpt>
      <trkpt lat="45.60249" lon="2.74355">
        <ele>1107.6</ele>
        <time>56108-05-26T10:56:39.000Z</time>
      </trkpt>
      <trkpt lat="45.6024" lon="2.74342">
        <ele>1106.7</ele>
        <time>56108-05-26T15:23:19.000Z</time>
      </trkpt>
      <trkpt lat="45.60239" lon="2.74331">
        <ele>1106.1</ele>
        <time>56108-05-26T16:29:59.000Z</time>
      </trkpt>
      <trkpt lat="45.6025" lon="2.74294">
        <ele>1106.8</ele>
        <time>56108-05-26T23:09:59.000Z</time>
      </trkpt>
      <trkpt lat="45.60245" lon="2.74252">
        <ele>1107.4</ele>
        <time>56108-05-27T08:03:19.000Z</time>
      </trkpt>
      <trkpt lat="45.60291" lon="2.74202">
        <ele>1100.3</ele>
        <time>56108-05-28T01:16:39.000Z</time>
      </trkpt>
      <trkpt lat="45.60296" lon="2.74189">
        <ele>1099.5</ele>
        <time>56108-05-28T05:09:59.000Z</time>
      </trkpt>
      <trkpt lat="45.60308" lon="2.74183">
        <ele>1098.5</ele>
        <time>56108-05-29T14:46:39.000Z</time>
      </trkpt>
      <trkpt lat="45.60339" lon="2.74178">
        <ele>1097.8</ele>
        <time>56108-05-29T21:59:59.000Z</time>
      </trkpt>
      <trkpt lat="45.60351" lon="2.74169">
        <ele>1098.7</ele>
        <time>56108-05-30T02:26:39.000Z</time>
      </trkpt>
      <trkpt lat="45.6038" lon="2.74108">
        <ele>1098.5</ele>
        <time>56108-05-30T19:39:59.000Z</time>
      </trkpt>
      <trkpt lat="45.60405" lon="2.74039">
        <ele>1098.4</ele>
        <time>56108-05-31T15:39:59.000Z</time>
      </trkpt>
      <trkpt lat="45.60396" lon="2.7401">
        <ele>1096.3</ele>
        <time>56108-06-01T02:29:59.000Z</time>
      </trkpt>
      <trkpt lat="45.60333" lon="2.73916">
        <ele>1095.9</ele>
        <time>56108-06-02T00:26:39.000Z</time>
      </trkpt>
      <trkpt lat="45.60301" lon="2.73888">
        <ele>1095.9</ele>
        <time>56108-06-02T08:13:19.000Z</time>
      </trkpt>
      <trkpt lat="45.60288" lon="2.73884">
        <ele>1095.6</ele>
        <time>56108-06-02T11:33:19.000Z</time>
      </trkpt>
      <trkpt lat="45.60266" lon="2.73885">
        <ele>1095.7</ele>
        <time>56108-06-02T17:06:39.000Z</time>
      </trkpt>
      <trkpt lat="45.6026" lon="2.73876">
        <ele>1095.1</ele>
        <time>56108-06-02T20:26:39.000Z</time>
      </trkpt>
      <trkpt lat="45.60261" lon="2.73865">
        <ele>1094.3</ele>
        <time>56108-06-02T22:39:59.000Z</time>
      </trkpt>
      <trkpt lat="45.603" lon="2.73756">
        <ele>1092.7</ele>
        <time>56108-06-03T18:06:39.000Z</time>
      </trkpt>
      <trkpt lat="45.60308" lon="2.73706">
        <ele>1091.5</ele>
        <time>56108-06-04T04:39:59.000Z</time>
      </trkpt>
      <trkpt lat="45.60306" lon="2.73672">
        <ele>1091</ele>
        <time>56108-06-04T11:03:19.000Z</time>
      </trkpt>
      <trkpt lat="45.6029" lon="2.73655">
        <ele>1089.7</ele>
        <time>56108-06-04T17:26:39.000Z</time>
      </trkpt>
      <trkpt lat="45.60271" lon="2.73618">
        <ele>1087.1</ele>
        <time>56108-06-05T01:46:39.000Z</time>
      </trkpt>
      <trkpt lat="45.6025" lon="2.73587">
        <ele>1082.1</ele>
        <time>56108-06-05T10:06:39.000Z</time>
      </trkpt>
      <trkpt lat="45.60233" lon="2.73548">
        <ele>1076.7</ele>
        <time>56108-06-05T20:06:39.000Z</time>
      </trkpt>
      <trkpt lat="45.60216" lon="2.73518">
        <ele>1073.1</ele>
        <time>56108-06-06T02:46:39.000Z</time>
      </trkpt>
      <trkpt lat="45.60205" lon="2.73502">
        <ele>1070.9</ele>
        <time>56108-06-06T07:13:19.000Z</time>
      </trkpt>
      <trkpt lat="45.60185" lon="2.73488">
        <ele>1067.3</ele>
        <time>56108-06-06T13:53:19.000Z</time>
      </trkpt>
      <trkpt lat="45.60168" lon="2.73479">
        <ele>1064.2</ele>
        <time>56108-06-06T19:59:59.000Z</time>
      </trkpt>
      <trkpt lat="45.60157" lon="2.73478">
        <ele>1062.2</ele>
        <time>56108-06-07T00:59:59.000Z</time>
      </trkpt>
      <trkpt lat="45.60109" lon="2.73495">
        <ele>1055.8</ele>
        <time>56108-06-07T15:59:59.000Z</time>
      </trkpt>
      <trkpt lat="45.60072" lon="2.73498">
        <ele>1051.8</ele>
        <time>56108-06-08T01:26:39.000Z</time>
      </trkpt>
      <trkpt lat="45.60046" lon="2.7351">
        <ele>1049.2</ele>
        <time>56108-06-08T09:13:19.000Z</time>
      </trkpt>
      <trkpt lat="45.59999" lon="2.73516">
        <ele>1044.9</ele>
        <time>56108-06-08T19:46:39.000Z</time>
      </trkpt>
      <trkpt lat="45.59987" lon="2.73513">
        <ele>1043.6</ele>
        <time>56108-06-08T23:06:39.000Z</time>
      </trkpt>
      <trkpt lat="45.59949" lon="2.73526">
        <ele>1038.7</ele>
        <time>56108-06-09T08:33:19.000Z</time>
      </trkpt>
      <trkpt lat="45.5992" lon="2.73528">
        <ele>1035.4</ele>
        <time>56108-06-09T15:46:39.000Z</time>
      </trkpt>
      <trkpt lat="45.59902" lon="2.73519">
        <ele>1034.1</ele>
        <time>56108-06-09T21:19:59.000Z</time>
      </trkpt>
      <trkpt lat="45.59894" lon="2.73511">
        <ele>1033.5</ele>
        <time>56108-06-10T00:39:59.000Z</time>
      </trkpt>
      <trkpt lat="45.59871" lon="2.73505">
        <ele>1031.5</ele>
        <time>56108-06-10T08:26:39.000Z</time>
      </trkpt>
      <trkpt lat="45.59863" lon="2.73488">
        <ele>1030.2</ele>
        <time>56108-06-10T13:26:39.000Z</time>
      </trkpt>
      <trkpt lat="45.59856" lon="2.73463">
        <ele>1028.6</ele>
        <time>56108-06-10T19:33:19.000Z</time>
      </trkpt>
      <trkpt lat="45.59835" lon="2.73408">
        <ele>1016.7</ele>
        <time>56108-06-11T11:39:59.000Z</time>
      </trkpt>
      <trkpt lat="45.5983" lon="2.73402">
        <ele>1016.1</ele>
        <time>56108-06-12T00:59:59.000Z</time>
      </trkpt>
      <trkpt lat="45.59827" lon="2.73375">
        <ele>1012.6</ele>
        <time>56108-06-12T06:33:19.000Z</time>
      </trkpt>
      <trkpt lat="45.59822" lon="2.73367">
        <ele>1012</ele>
        <time>56108-06-12T08:46:39.000Z</time>
      </trkpt>
      <trkpt lat="45.598" lon="2.7335">
        <ele>1011.6</ele>
        <time>56108-06-12T15:26:39.000Z</time>
      </trkpt>
      <trkpt lat="45.59778" lon="2.73347">
        <ele>1011.4</ele>
        <time>56108-06-12T20:59:59.000Z</time>
      </trkpt>
      <trkpt lat="45.59762" lon="2.73335">
        <ele>1006.3</ele>
        <time>56108-06-13T05:19:59.000Z</time>
      </trkpt>
      <trkpt lat="45.59747" lon="2.73343">
        <ele>1007.1</ele>
        <time>56108-06-13T09:46:39.000Z</time>
      </trkpt>
      <trkpt lat="45.59729" lon="2.73372">
        <ele>1011.9</ele>
        <time>56108-06-13T16:59:59.000Z</time>
      </trkpt>
      <trkpt lat="45.59722" lon="2.73373">
        <ele>1011.2</ele>
        <time>56108-06-13T20:19:59.000Z</time>
      </trkpt>
      <trkpt lat="45.5971" lon="2.73363">
        <ele>1011</ele>
        <time>56108-06-13T22:33:19.000Z</time>
      </trkpt>
      <trkpt lat="45.59706" lon="2.73343">
        <ele>1009.6</ele>
        <time>56108-06-14T03:33:19.000Z</time>
      </trkpt>
      <trkpt lat="45.59692" lon="2.73316">
        <ele>1006.4</ele>
        <time>56108-06-14T11:19:59.000Z</time>
      </trkpt>
    </trkseg>
  </trk>
</gpx>